sensor_id;sensor_type;location;lat;lon;timestamp;P1;durP1;ratioP1;P2;durP2;ratioP2
20336;SDS011;10326;53.660;10.200;2023-04-26T00:00:32;7.32;;;2.30;;
20336;SDS011;10326;53.660;10.200;2023-04-26T00:02:59;5.18;;;2.10;;
20336;SDS011;10326;53.660;10.200;2023-04-26T00:05:27;6.25;;;3.13;;
20336;SDS011;10326;53.660;10.200;2023-04-26T00:07:54;6.93;;;3.08;;
20336;SDS011;10326;53.660;10.200;2023-04-26T00:10:22;5.82;;;3.08;;
20336;SDS011;10326;53.660;10.200;2023-04-26T00:12:50;6.05;;;2.08;;
20336;SDS011;10326;53.660;10.200;2023-04-26T00:15:17;6.10;;;2.20;;
20336;SDS011;10326;53.660;10.200;2023-04-26T00:17:44;6.35;;;2.00;;
20336;SDS011;10326;53.660;10.200;2023-04-26T00:20:12;8.20;;;1.75;;
20336;SDS011;10326;53.660;10.200;2023-04-26T00:22:39;7.70;;;1.88;;
20336;SDS011;10326;53.660;10.200;2023-04-26T00:25:07;5.05;;;1.65;;
20336;SDS011;10326;53.660;10.200;2023-04-26T00:27:35;3.88;;;1.60;;
20336;SDS011;10326;53.660;10.200;2023-04-26T00:30:04;5.90;;;1.80;;
20336;SDS011;10326;53.660;10.200;2023-04-26T00:32:33;9.13;;;1.90;;
20336;SDS011;10326;53.660;10.200;2023-04-26T00:35:01;4.28;;;1.50;;
20336;SDS011;10326;53.660;10.200;2023-04-26T00:37:29;6.10;;;2.10;;
20336;SDS011;10326;53.660;10.200;2023-04-26T00:39:56;5.40;;;3.30;;
20336;SDS011;10326;53.660;10.200;2023-04-26T00:42:23;6.63;;;2.65;;
20336;SDS011;10326;53.660;10.200;2023-04-26T00:44:52;5.60;;;2.00;;
20336;SDS011;10326;53.660;10.200;2023-04-26T00:47:23;7.05;;;1.95;;
20336;SDS011;10326;53.660;10.200;2023-04-26T00:49:51;6.05;;;1.85;;
20336;SDS011;10326;53.660;10.200;2023-04-26T00:52:18;5.80;;;1.50;;
20336;SDS011;10326;53.660;10.200;2023-04-26T00:54:45;6.88;;;1.80;;
20336;SDS011;10326;53.660;10.200;2023-04-26T00:57:14;5.57;;;2.10;;
20336;SDS011;10326;53.660;10.200;2023-04-26T00:59:40;5.63;;;2.20;;
20336;SDS011;10326;53.660;10.200;2023-04-26T01:02:07;7.85;;;2.30;;
20336;SDS011;10326;53.660;10.200;2023-04-26T01:04:36;6.55;;;2.17;;
20336;SDS011;10326;53.660;10.200;2023-04-26T01:07:04;4.25;;;1.63;;
20336;SDS011;10326;53.660;10.200;2023-04-26T01:09:31;4.25;;;1.48;;
20336;SDS011;10326;53.660;10.200;2023-04-26T01:11:59;5.07;;;1.60;;
20336;SDS011;10326;53.660;10.200;2023-04-26T01:14:26;4.75;;;1.73;;
20336;SDS011;10326;53.660;10.200;2023-04-26T01:16:55;3.85;;;1.60;;
20336;SDS011;10326;53.660;10.200;2023-04-26T01:19:22;3.95;;;1.88;;
20336;SDS011;10326;53.660;10.200;2023-04-26T01:21:51;4.53;;;1.85;;
20336;SDS011;10326;53.660;10.200;2023-04-26T01:24:20;5.82;;;1.58;;
20336;SDS011;10326;53.660;10.200;2023-04-26T01:26:47;3.85;;;1.42;;
20336;SDS011;10326;53.660;10.200;2023-04-26T01:29:15;4.53;;;1.85;;
20336;SDS011;10326;53.660;10.200;2023-04-26T01:31:43;3.63;;;1.83;;
20336;SDS011;10326;53.660;10.200;2023-04-26T01:34:11;4.45;;;1.88;;
20336;SDS011;10326;53.660;10.200;2023-04-26T01:36:39;4.95;;;1.50;;
20336;SDS011;10326;53.660;10.200;2023-04-26T01:39:06;6.00;;;1.33;;
20336;SDS011;10326;53.660;10.200;2023-04-26T01:41:34;3.38;;;1.40;;
20336;SDS011;10326;53.660;10.200;2023-04-26T01:44:01;3.53;;;1.45;;
20336;SDS011;10326;53.660;10.200;2023-04-26T01:46:29;4.70;;;1.63;;
20336;SDS011;10326;53.660;10.200;2023-04-26T01:48:56;5.20;;;1.60;;
20336;SDS011;10326;53.660;10.200;2023-04-26T01:51:23;5.60;;;1.70;;
20336;SDS011;10326;53.660;10.200;2023-04-26T01:53:51;2.95;;;1.52;;
20336;SDS011;10326;53.660;10.200;2023-04-26T01:56:18;5.63;;;1.50;;
20336;SDS011;10326;53.660;10.200;2023-04-26T01:58:47;4.07;;;1.60;;
20336;SDS011;10326;53.660;10.200;2023-04-26T02:01:13;5.53;;;2.17;;
20336;SDS011;10326;53.660;10.200;2023-04-26T02:03:43;4.35;;;1.65;;
20336;SDS011;10326;53.660;10.200;2023-04-26T02:06:10;4.65;;;1.50;;
20336;SDS011;10326;53.660;10.200;2023-04-26T02:08:37;5.90;;;2.30;;
20336;SDS011;10326;53.660;10.200;2023-04-26T02:11:04;3.67;;;1.60;;
20336;SDS011;10326;53.660;10.200;2023-04-26T02:13:32;4.85;;;2.10;;
20336;SDS011;10326;53.660;10.200;2023-04-26T02:16:00;5.85;;;2.33;;
20336;SDS011;10326;53.660;10.200;2023-04-26T02:18:27;6.45;;;2.10;;
20336;SDS011;10326;53.660;10.200;2023-04-26T02:20:54;5.32;;;2.03;;
20336;SDS011;10326;53.660;10.200;2023-04-26T02:23:21;7.30;;;2.10;;
20336;SDS011;10326;53.660;10.200;2023-04-26T03:43:21;4.68;;;1.90;;
20336;SDS011;10326;53.660;10.200;2023-04-26T06:13:17;5.90;;;3.00;;
20336;SDS011;10326;53.660;10.200;2023-04-26T06:22:40;7.00;;;4.05;;
20336;SDS011;10326;53.660;10.200;2023-04-26T06:41:36;6.40;;;3.63;;
20336;SDS011;10326;53.660;10.200;2023-04-26T07:00:31;7.32;;;3.47;;
20336;SDS011;10326;53.660;10.200;2023-04-26T07:02:58;7.10;;;4.10;;
20336;SDS011;10326;53.660;10.200;2023-04-26T07:05:26;7.32;;;4.18;;
20336;SDS011;10326;53.660;10.200;2023-04-26T07:19:48;8.82;;;4.03;;
20336;SDS011;10326;53.660;10.200;2023-04-26T07:42:36;6.63;;;3.53;;
20336;SDS011;10326;53.660;10.200;2023-04-26T07:45:22;11.77;;;4.25;;
20336;SDS011;10326;53.660;10.200;2023-04-26T07:48:07;6.32;;;3.30;;
20336;SDS011;10326;53.660;10.200;2023-04-26T07:50:53;7.63;;;3.33;;
20336;SDS011;10326;53.660;10.200;2023-04-26T07:53:39;5.47;;;3.25;;
20336;SDS011;10326;53.660;10.200;2023-04-26T07:56:25;7.50;;;2.55;;
20336;SDS011;10326;53.660;10.200;2023-04-26T07:59:12;7.03;;;3.22;;
20336;SDS011;10326;53.660;10.200;2023-04-26T08:01:58;6.25;;;2.85;;
20336;SDS011;10326;53.660;10.200;2023-04-26T08:04:46;7.07;;;3.22;;
20336;SDS011;10326;53.660;10.200;2023-04-26T08:07:34;6.28;;;2.90;;
20336;SDS011;10326;53.660;10.200;2023-04-26T08:10:20;8.00;;;3.00;;
20336;SDS011;10326;53.660;10.200;2023-04-26T08:13:05;5.15;;;2.65;;
20336;SDS011;10326;53.660;10.200;2023-04-26T08:15:52;6.63;;;3.10;;
20336;SDS011;10326;53.660;10.200;2023-04-26T08:18:38;5.88;;;2.53;;
20336;SDS011;10326;53.660;10.200;2023-04-26T08:21:23;6.88;;;2.70;;
20336;SDS011;10326;53.660;10.200;2023-04-26T08:24:09;5.93;;;2.75;;
20336;SDS011;10326;53.660;10.200;2023-04-26T08:26:55;4.68;;;2.13;;
20336;SDS011;10326;53.660;10.200;2023-04-26T08:29:41;5.63;;;1.90;;
20336;SDS011;10326;53.660;10.200;2023-04-26T08:32:28;5.13;;;2.17;;
20336;SDS011;10326;53.660;10.200;2023-04-26T08:35:13;3.97;;;2.08;;
20336;SDS011;10326;53.660;10.200;2023-04-26T08:37:59;2.95;;;1.95;;
20336;SDS011;10326;53.660;10.200;2023-04-26T08:40:45;3.63;;;2.03;;
20336;SDS011;10326;53.660;10.200;2023-04-26T08:43:31;4.93;;;2.00;;
20336;SDS011;10326;53.660;10.200;2023-04-26T08:46:20;3.92;;;1.60;;
20336;SDS011;10326;53.660;10.200;2023-04-26T08:49:12;5.00;;;2.22;;
20336;SDS011;10326;53.660;10.200;2023-04-26T08:51:48;5.18;;;2.03;;
20336;SDS011;10326;53.660;10.200;2023-04-26T08:54:17;4.60;;;1.70;;
20336;SDS011;10326;53.660;10.200;2023-04-26T08:56:45;5.03;;;1.90;;
20336;SDS011;10326;53.660;10.200;2023-04-26T08:59:12;4.65;;;2.00;;
20336;SDS011;10326;53.660;10.200;2023-04-26T09:01:41;3.90;;;1.85;;
20336;SDS011;10326;53.660;10.200;2023-04-26T09:04:11;3.35;;;1.77;;
20336;SDS011;10326;53.660;10.200;2023-04-26T09:06:38;4.30;;;1.48;;
20336;SDS011;10326;53.660;10.200;2023-04-26T09:09:06;5.47;;;1.60;;
20336;SDS011;10326;53.660;10.200;2023-04-26T09:11:51;2.35;;;1.20;;
20336;SDS011;10326;53.660;10.200;2023-04-26T09:14:20;2.92;;;1.55;;
20336;SDS011;10326;53.660;10.200;2023-04-26T09:16:47;2.20;;;1.50;;
20336;SDS011;10326;53.660;10.200;2023-04-26T09:19:15;3.83;;;1.50;;
20336;SDS011;10326;53.660;10.200;2023-04-26T09:21:42;3.92;;;1.67;;
20336;SDS011;10326;53.660;10.200;2023-04-26T09:24:11;5.05;;;1.80;;
20336;SDS011;10326;53.660;10.200;2023-04-26T09:26:39;5.03;;;1.50;;
20336;SDS011;10326;53.660;10.200;2023-04-26T09:29:10;2.47;;;1.40;;
20336;SDS011;10326;53.660;10.200;2023-04-26T09:31:42;3.72;;;1.55;;
20336;SDS011;10326;53.660;10.200;2023-04-26T09:34:12;4.95;;;1.80;;
20336;SDS011;10326;53.660;10.200;2023-04-26T09:36:48;6.15;;;1.77;;
20336;SDS011;10326;53.660;10.200;2023-04-26T09:42:08;5.50;;;1.80;;
20336;SDS011;10326;53.660;10.200;2023-04-26T09:44:36;3.47;;;1.60;;
20336;SDS011;10326;53.660;10.200;2023-04-26T09:47:05;5.00;;;2.05;;
20336;SDS011;10326;53.660;10.200;2023-04-26T09:49:42;5.65;;;1.73;;
20336;SDS011;10326;53.660;10.200;2023-04-26T09:52:14;3.78;;;1.52;;
20336;SDS011;10326;53.660;10.200;2023-04-26T09:54:43;4.05;;;2.15;;
20336;SDS011;10326;53.660;10.200;2023-04-26T09:57:13;1.98;;;1.50;;
20336;SDS011;10326;53.660;10.200;2023-04-26T09:59:43;5.28;;;1.70;;
20336;SDS011;10326;53.660;10.200;2023-04-26T10:02:15;3.55;;;1.85;;
20336;SDS011;10326;53.660;10.200;2023-04-26T10:04:45;4.40;;;1.88;;
20336;SDS011;10326;53.660;10.200;2023-04-26T10:07:16;2.50;;;2.03;;
20336;SDS011;10326;53.660;10.200;2023-04-26T10:09:44;3.05;;;1.60;;
20336;SDS011;10326;53.660;10.200;2023-04-26T10:12:12;4.63;;;1.55;;
20336;SDS011;10326;53.660;10.200;2023-04-26T10:14:41;3.03;;;1.60;;
20336;SDS011;10326;53.660;10.200;2023-04-26T10:17:09;3.47;;;1.80;;
20336;SDS011;10326;53.660;10.200;2023-04-26T10:19:37;4.75;;;1.90;;
20336;SDS011;10326;53.660;10.200;2023-04-26T10:22:08;4.68;;;1.73;;
20336;SDS011;10326;53.660;10.200;2023-04-26T10:24:41;3.42;;;1.67;;
20336;SDS011;10326;53.660;10.200;2023-04-26T10:27:09;3.95;;;1.80;;
20336;SDS011;10326;53.660;10.200;2023-04-26T10:35:58;2.72;;;1.75;;
20336;SDS011;10326;53.660;10.200;2023-04-26T10:38:30;3.85;;;1.98;;
20336;SDS011;10326;53.660;10.200;2023-04-26T10:47:05;2.95;;;1.80;;
20336;SDS011;10326;53.660;10.200;2023-04-26T10:49:42;3.90;;;1.67;;
20336;SDS011;10326;53.660;10.200;2023-04-26T10:52:14;5.97;;;1.80;;
20336;SDS011;10326;53.660;10.200;2023-04-26T10:54:51;2.95;;;1.38;;
20336;SDS011;10326;53.660;10.200;2023-04-26T10:57:21;2.15;;;1.20;;
20336;SDS011;10326;53.660;10.200;2023-04-26T11:02:56;2.15;;;1.20;;
20336;SDS011;10326;53.660;10.200;2023-04-26T11:05:35;2.63;;;1.50;;
20336;SDS011;10326;53.660;10.200;2023-04-26T11:08:06;4.22;;;1.88;;
20336;SDS011;10326;53.660;10.200;2023-04-26T11:10:40;2.22;;;1.55;;
20336;SDS011;10326;53.660;10.200;2023-04-26T11:13:09;1.95;;;1.70;;
20336;SDS011;10326;53.660;10.200;2023-04-26T11:15:37;5.03;;;1.30;;
20336;SDS011;10326;53.660;10.200;2023-04-26T11:18:04;3.58;;;1.52;;
20336;SDS011;10326;53.660;10.200;2023-04-26T11:20:32;3.45;;;1.52;;
20336;SDS011;10326;53.660;10.200;2023-04-26T11:22:59;3.63;;;1.50;;
20336;SDS011;10326;53.660;10.200;2023-04-26T11:25:27;1.88;;;1.20;;
20336;SDS011;10326;53.660;10.200;2023-04-26T11:27:55;3.22;;;1.70;;
20336;SDS011;10326;53.660;10.200;2023-04-26T11:30:27;2.70;;;1.50;;
20336;SDS011;10326;53.660;10.200;2023-04-26T11:32:56;3.85;;;1.25;;
20336;SDS011;10326;53.660;10.200;2023-04-26T11:35:23;4.25;;;1.67;;
20336;SDS011;10326;53.660;10.200;2023-04-26T11:37:51;2.70;;;1.20;;
20336;SDS011;10326;53.660;10.200;2023-04-26T11:40:18;6.43;;;1.70;;
20336;SDS011;10326;53.660;10.200;2023-04-26T11:42:46;3.63;;;1.38;;
20336;SDS011;10326;53.660;10.200;2023-04-26T11:45:16;5.15;;;1.38;;
20336;SDS011;10326;53.660;10.200;2023-04-26T11:47:44;2.83;;;1.33;;
20336;SDS011;10326;53.660;10.200;2023-04-26T11:50:12;2.85;;;1.17;;
20336;SDS011;10326;53.660;10.200;2023-04-26T11:52:40;4.22;;;1.35;;
20336;SDS011;10326;53.660;10.200;2023-04-26T11:55:07;3.40;;;1.27;;
20336;SDS011;10326;53.660;10.200;2023-04-26T11:57:35;2.53;;;1.30;;
20336;SDS011;10326;53.660;10.200;2023-04-26T12:00:09;4.53;;;1.50;;
20336;SDS011;10326;53.660;10.200;2023-04-26T12:02:39;4.18;;;1.13;;
20336;SDS011;10326;53.660;10.200;2023-04-26T12:05:19;2.38;;;1.38;;
20336;SDS011;10326;53.660;10.200;2023-04-26T12:07:50;1.58;;;1.00;;
20336;SDS011;10326;53.660;10.200;2023-04-26T12:10:22;1.75;;;1.05;;
20336;SDS011;10326;53.660;10.200;2023-04-26T12:12:52;3.47;;;1.40;;
20336;SDS011;10326;53.660;10.200;2023-04-26T12:15:24;2.53;;;1.23;;
20336;SDS011;10326;53.660;10.200;2023-04-26T12:17:59;2.88;;;1.25;;
20336;SDS011;10326;53.660;10.200;2023-04-26T12:20:31;3.58;;;1.25;;
20336;SDS011;10326;53.660;10.200;2023-04-26T12:23:00;3.38;;;1.20;;
20336;SDS011;10326;53.660;10.200;2023-04-26T12:25:30;4.82;;;2.08;;
20336;SDS011;10326;53.660;10.200;2023-04-26T12:27:59;3.10;;;1.30;;
20336;SDS011;10326;53.660;10.200;2023-04-26T12:30:27;3.30;;;1.60;;
20336;SDS011;10326;53.660;10.200;2023-04-26T12:33:02;3.75;;;1.48;;
20336;SDS011;10326;53.660;10.200;2023-04-26T12:35:30;2.67;;;1.15;;
20336;SDS011;10326;53.660;10.200;2023-04-26T12:37:59;1.70;;;1.05;;
20336;SDS011;10326;53.660;10.200;2023-04-26T12:40:26;3.92;;;1.42;;
20336;SDS011;10326;53.660;10.200;2023-04-26T12:42:54;2.83;;;1.45;;
20336;SDS011;10326;53.660;10.200;2023-04-26T12:45:22;2.92;;;1.15;;
20336;SDS011;10326;53.660;10.200;2023-04-26T12:47:51;2.70;;;1.27;;
20336;SDS011;10326;53.660;10.200;2023-04-26T12:50:20;2.88;;;1.25;;
20336;SDS011;10326;53.660;10.200;2023-04-26T12:52:47;2.30;;;1.20;;
20336;SDS011;10326;53.660;10.200;2023-04-26T12:55:14;2.85;;;1.17;;
20336;SDS011;10326;53.660;10.200;2023-04-26T12:57:42;3.38;;;1.30;;
20336;SDS011;10326;53.660;10.200;2023-04-26T13:00:11;3.78;;;1.45;;
20336;SDS011;10326;53.660;10.200;2023-04-26T13:02:41;3.67;;;1.52;;
20336;SDS011;10326;53.660;10.200;2023-04-26T13:05:08;2.67;;;1.35;;
20336;SDS011;10326;53.660;10.200;2023-04-26T13:07:37;2.58;;;1.33;;
20336;SDS011;10326;53.660;10.200;2023-04-26T13:10:08;2.80;;;1.23;;
20336;SDS011;10326;53.660;10.200;2023-04-26T13:12:35;1.75;;;1.15;;
20336;SDS011;10326;53.660;10.200;2023-04-26T13:15:04;2.38;;;1.10;;
20336;SDS011;10326;53.660;10.200;2023-04-26T13:17:33;2.13;;;1.13;;
20336;SDS011;10326;53.660;10.200;2023-04-26T13:20:01;2.72;;;1.20;;
20336;SDS011;10326;53.660;10.200;2023-04-26T13:22:30;2.10;;;1.10;;
20336;SDS011;10326;53.660;10.200;2023-04-26T13:24:58;2.20;;;1.13;;
20336;SDS011;10326;53.660;10.200;2023-04-26T13:27:25;2.22;;;1.30;;
20336;SDS011;10326;53.660;10.200;2023-04-26T13:29:52;3.28;;;1.58;;
20336;SDS011;10326;53.660;10.200;2023-04-26T13:32:19;2.30;;;1.00;;
20336;SDS011;10326;53.660;10.200;2023-04-26T13:34:46;1.83;;;1.00;;
20336;SDS011;10326;53.660;10.200;2023-04-26T13:37:13;2.20;;;1.00;;
20336;SDS011;10326;53.660;10.200;2023-04-26T13:39:41;1.60;;;1.20;;
20336;SDS011;10326;53.660;10.200;2023-04-26T13:42:09;2.13;;;1.30;;
20336;SDS011;10326;53.660;10.200;2023-04-26T13:44:36;2.78;;;1.10;;
20336;SDS011;10326;53.660;10.200;2023-04-26T13:47:05;2.88;;;1.20;;
20336;SDS011;10326;53.660;10.200;2023-04-26T13:49:32;2.88;;;1.02;;
20336;SDS011;10326;53.660;10.200;2023-04-26T13:51:59;4.18;;;1.50;;
20336;SDS011;10326;53.660;10.200;2023-04-26T13:54:26;4.18;;;1.25;;
20336;SDS011;10326;53.660;10.200;2023-04-26T13:56:53;4.50;;;1.45;;
20336;SDS011;10326;53.660;10.200;2023-04-26T13:59:21;2.28;;;1.20;;
20336;SDS011;10326;53.660;10.200;2023-04-26T14:01:48;2.33;;;1.20;;
20336;SDS011;10326;53.660;10.200;2023-04-26T14:04:15;2.83;;;1.27;;
20336;SDS011;10326;53.660;10.200;2023-04-26T14:06:42;2.33;;;1.15;;
20336;SDS011;10326;53.660;10.200;2023-04-26T14:09:08;3.60;;;1.27;;
20336;SDS011;10326;53.660;10.200;2023-04-26T14:11:36;3.50;;;1.33;;
20336;SDS011;10326;53.660;10.200;2023-04-26T14:14:03;2.63;;;1.23;;
20336;SDS011;10326;53.660;10.200;2023-04-26T14:16:34;3.60;;;1.55;;
20336;SDS011;10326;53.660;10.200;2023-04-26T14:19:05;2.22;;;1.33;;
20336;SDS011;10326;53.660;10.200;2023-04-26T14:21:32;5.07;;;1.50;;
20336;SDS011;10326;53.660;10.200;2023-04-26T14:23:59;7.15;;;1.70;;
20336;SDS011;10326;53.660;10.200;2023-04-26T14:26:26;4.32;;;1.60;;
20336;SDS011;10326;53.660;10.200;2023-04-26T14:28:53;2.38;;;1.52;;
20336;SDS011;10326;53.660;10.200;2023-04-26T14:31:20;4.55;;;1.60;;
20336;SDS011;10326;53.660;10.200;2023-04-26T14:33:49;5.45;;;1.75;;
20336;SDS011;10326;53.660;10.200;2023-04-26T14:36:17;2.97;;;1.40;;
20336;SDS011;10326;53.660;10.200;2023-04-26T14:38:44;3.25;;;1.50;;
20336;SDS011;10326;53.660;10.200;2023-04-26T14:41:12;6.28;;;1.67;;
20336;SDS011;10326;53.660;10.200;2023-04-26T14:43:40;3.38;;;1.48;;
20336;SDS011;10326;53.660;10.200;2023-04-26T14:46:07;3.47;;;1.45;;
20336;SDS011;10326;53.660;10.200;2023-04-26T14:48:34;4.15;;;1.40;;
20336;SDS011;10326;53.660;10.200;2023-04-26T14:51:03;5.15;;;1.80;;
20336;SDS011;10326;53.660;10.200;2023-04-26T14:53:30;4.13;;;1.60;;
20336;SDS011;10326;53.660;10.200;2023-04-26T14:55:57;3.67;;;1.52;;
20336;SDS011;10326;53.660;10.200;2023-04-26T14:58:25;3.53;;;1.35;;
20336;SDS011;10326;53.660;10.200;2023-04-26T15:00:53;2.55;;;1.23;;
20336;SDS011;10326;53.660;10.200;2023-04-26T15:03:20;3.10;;;1.42;;
20336;SDS011;10326;53.660;10.200;2023-04-26T15:05:47;2.47;;;1.10;;
20336;SDS011;10326;53.660;10.200;2023-04-26T15:08:15;3.47;;;1.60;;
20336;SDS011;10326;53.660;10.200;2023-04-26T15:10:42;3.20;;;1.60;;
20336;SDS011;10326;53.660;10.200;2023-04-26T15:13:09;3.35;;;1.40;;
20336;SDS011;10326;53.660;10.200;2023-04-26T15:15:36;3.90;;;1.45;;
20336;SDS011;10326;53.660;10.200;2023-04-26T15:18:03;4.07;;;1.30;;
20336;SDS011;10326;53.660;10.200;2023-04-26T15:20:30;2.80;;;1.45;;
20336;SDS011;10326;53.660;10.200;2023-04-26T15:22:57;5.22;;;2.00;;
20336;SDS011;10326;53.660;10.200;2023-04-26T15:25:26;3.20;;;1.60;;
20336;SDS011;10326;53.660;10.200;2023-04-26T15:27:53;5.55;;;2.00;;
20336;SDS011;10326;53.660;10.200;2023-04-26T15:30:21;4.10;;;2.08;;
20336;SDS011;10326;53.660;10.200;2023-04-26T15:32:48;4.95;;;1.70;;
20336;SDS011;10326;53.660;10.200;2023-04-26T15:35:15;3.42;;;2.03;;
20336;SDS011;10326;53.660;10.200;2023-04-26T15:37:42;5.13;;;1.95;;
20336;SDS011;10326;53.660;10.200;2023-04-26T15:40:09;3.75;;;1.85;;
20336;SDS011;10326;53.660;10.200;2023-04-26T15:42:38;4.75;;;1.95;;
20336;SDS011;10326;53.660;10.200;2023-04-26T15:45:06;4.13;;;1.92;;
20336;SDS011;10326;53.660;10.200;2023-04-26T15:47:34;4.03;;;1.60;;
20336;SDS011;10326;53.660;10.200;2023-04-26T15:50:02;6.07;;;1.70;;
20336;SDS011;10326;53.660;10.200;2023-04-26T15:52:31;3.47;;;1.60;;
20336;SDS011;10326;53.660;10.200;2023-04-26T15:55:00;4.63;;;1.75;;
20336;SDS011;10326;53.660;10.200;2023-04-26T15:57:26;4.30;;;1.48;;
20336;SDS011;10326;53.660;10.200;2023-04-26T15:59:55;5.68;;;1.60;;
20336;SDS011;10326;53.660;10.200;2023-04-26T16:02:22;5.97;;;1.73;;
20336;SDS011;10326;53.660;10.200;2023-04-26T16:04:49;8.00;;;2.17;;
20336;SDS011;10326;53.660;10.200;2023-04-26T16:07:17;4.55;;;1.60;;
20336;SDS011;10326;53.660;10.200;2023-04-26T16:09:44;3.65;;;1.58;;
20336;SDS011;10326;53.660;10.200;2023-04-26T16:12:11;5.15;;;2.03;;
20336;SDS011;10326;53.660;10.200;2023-04-26T16:14:38;4.50;;;1.70;;
20336;SDS011;10326;53.660;10.200;2023-04-26T16:17:06;5.53;;;1.85;;
20336;SDS011;10326;53.660;10.200;2023-04-26T16:19:33;3.95;;;1.80;;
20336;SDS011;10326;53.660;10.200;2023-04-26T16:22:01;4.30;;;2.13;;
20336;SDS011;10326;53.660;10.200;2023-04-26T16:24:28;5.85;;;2.08;;
20336;SDS011;10326;53.660;10.200;2023-04-26T16:26:55;4.32;;;1.83;;
20336;SDS011;10326;53.660;10.200;2023-04-26T16:29:22;3.85;;;1.90;;
20336;SDS011;10326;53.660;10.200;2023-04-26T16:31:50;4.93;;;1.90;;
20336;SDS011;10326;53.660;10.200;2023-04-26T16:34:18;4.93;;;1.98;;
20336;SDS011;10326;53.660;10.200;2023-04-26T16:36:45;7.50;;;1.80;;
20336;SDS011;10326;53.660;10.200;2023-04-26T16:39:13;3.70;;;2.00;;
20336;SDS011;10326;53.660;10.200;2023-04-26T16:41:41;12.30;;;2.65;;
20336;SDS011;10326;53.660;10.200;2023-04-26T16:44:08;5.32;;;1.85;;
20336;SDS011;10326;53.660;10.200;2023-04-26T16:46:35;6.03;;;1.63;;
20336;SDS011;10326;53.660;10.200;2023-04-26T16:49:02;4.00;;;2.10;;
20336;SDS011;10326;53.660;10.200;2023-04-26T16:51:34;6.15;;;2.17;;
20336;SDS011;10326;53.660;10.200;2023-04-26T16:54:02;5.70;;;2.10;;
20336;SDS011;10326;53.660;10.200;2023-04-26T16:56:29;5.07;;;1.83;;
20336;SDS011;10326;53.660;10.200;2023-04-26T16:58:57;4.88;;;1.98;;
20336;SDS011;10326;53.660;10.200;2023-04-26T17:01:24;5.22;;;2.10;;
20336;SDS011;10326;53.660;10.200;2023-04-26T17:03:53;5.13;;;2.35;;
20336;SDS011;10326;53.660;10.200;2023-04-26T17:06:23;4.03;;;2.00;;
20336;SDS011;10326;53.660;10.200;2023-04-26T17:08:51;4.15;;;2.03;;
20336;SDS011;10326;53.660;10.200;2023-04-26T17:11:18;4.97;;;2.15;;
20336;SDS011;10326;53.660;10.200;2023-04-26T17:13:45;5.72;;;2.20;;
20336;SDS011;10326;53.660;10.200;2023-04-26T17:16:12;6.60;;;2.25;;
20336;SDS011;10326;53.660;10.200;2023-04-26T17:18:39;5.75;;;2.38;;
20336;SDS011;10326;53.660;10.200;2023-04-26T17:21:06;5.90;;;2.38;;
20336;SDS011;10326;53.660;10.200;2023-04-26T17:23:33;5.57;;;2.17;;
20336;SDS011;10326;53.660;10.200;2023-04-26T17:26:01;5.45;;;1.88;;
20336;SDS011;10326;53.660;10.200;2023-04-26T17:28:28;5.40;;;1.90;;
20336;SDS011;10326;53.660;10.200;2023-04-26T17:30:57;4.93;;;2.17;;
20336;SDS011;10326;53.660;10.200;2023-04-26T17:33:24;5.43;;;2.42;;
20336;SDS011;10326;53.660;10.200;2023-04-26T17:35:51;4.75;;;1.90;;
20336;SDS011;10326;53.660;10.200;2023-04-26T17:38:18;3.85;;;2.10;;
20336;SDS011;10326;53.660;10.200;2023-04-26T17:40:46;6.72;;;2.50;;
20336;SDS011;10326;53.660;10.200;2023-04-26T17:43:19;3.40;;;2.10;;
20336;SDS011;10326;53.660;10.200;2023-04-26T17:45:46;4.88;;;2.30;;
20336;SDS011;10326;53.660;10.200;2023-04-26T17:48:13;5.25;;;2.03;;
20336;SDS011;10326;53.660;10.200;2023-04-26T17:50:41;3.88;;;2.05;;
20336;SDS011;10326;53.660;10.200;2023-04-26T17:53:07;4.20;;;2.25;;
20336;SDS011;10326;53.660;10.200;2023-04-26T17:55:37;4.20;;;1.70;;
20336;SDS011;10326;53.660;10.200;2023-04-26T17:58:08;4.63;;;1.45;;
20336;SDS011;10326;53.660;10.200;2023-04-26T18:00:36;5.35;;;2.30;;
20336;SDS011;10326;53.660;10.200;2023-04-26T18:03:03;4.43;;;1.83;;
20336;SDS011;10326;53.660;10.200;2023-04-26T18:05:30;5.72;;;1.95;;
20336;SDS011;10326;53.660;10.200;2023-04-26T18:07:57;3.42;;;1.70;;
20336;SDS011;10326;53.660;10.200;2023-04-26T18:10:24;5.95;;;2.13;;
20336;SDS011;10326;53.660;10.200;2023-04-26T18:12:51;3.15;;;1.80;;
20336;SDS011;10326;53.660;10.200;2023-04-26T18:15:18;5.88;;;2.15;;
20336;SDS011;10326;53.660;10.200;2023-04-26T18:17:47;3.83;;;2.10;;
20336;SDS011;10326;53.660;10.200;2023-04-26T18:20:14;8.40;;;2.30;;
20336;SDS011;10326;53.660;10.200;2023-04-26T18:22:41;4.45;;;1.75;;
20336;SDS011;10326;53.660;10.200;2023-04-26T18:25:08;5.18;;;2.40;;
20336;SDS011;10326;53.660;10.200;2023-04-26T18:27:35;4.85;;;1.88;;
20336;SDS011;10326;53.660;10.200;2023-04-26T18:30:03;4.85;;;2.22;;
20336;SDS011;10326;53.660;10.200;2023-04-26T18:32:31;8.43;;;2.30;;
20336;SDS011;10326;53.660;10.200;2023-04-26T18:35:00;4.80;;;1.88;;
20336;SDS011;10326;53.660;10.200;2023-04-26T18:37:30;4.50;;;2.10;;
20336;SDS011;10326;53.660;10.200;2023-04-26T18:39:57;4.45;;;2.83;;
20336;SDS011;10326;53.660;10.200;2023-04-26T18:42:24;5.43;;;2.05;;
20336;SDS011;10326;53.660;10.200;2023-04-26T18:44:50;5.60;;;2.42;;
20336;SDS011;10326;53.660;10.200;2023-04-26T18:47:17;5.72;;;2.17;;
20336;SDS011;10326;53.660;10.200;2023-04-26T18:49:45;3.10;;;2.33;;
20336;SDS011;10326;53.660;10.200;2023-04-26T18:52:13;5.05;;;2.15;;
20336;SDS011;10326;53.660;10.200;2023-04-26T18:54:40;5.65;;;2.78;;
20336;SDS011;10326;53.660;10.200;2023-04-26T18:57:07;8.48;;;2.33;;
20336;SDS011;10326;53.660;10.200;2023-04-26T18:59:34;4.63;;;2.40;;
20336;SDS011;10326;53.660;10.200;2023-04-26T19:02:01;4.35;;;1.85;;
20336;SDS011;10326;53.660;10.200;2023-04-26T19:04:29;6.32;;;2.20;;
20336;SDS011;10326;53.660;10.200;2023-04-26T19:06:56;5.30;;;2.10;;
20336;SDS011;10326;53.660;10.200;2023-04-26T19:09:24;7.40;;;2.70;;
20336;SDS011;10326;53.660;10.200;2023-04-26T19:11:51;3.33;;;2.03;;
20336;SDS011;10326;53.660;10.200;2023-04-26T19:14:18;4.65;;;2.10;;
20336;SDS011;10326;53.660;10.200;2023-04-26T19:16:45;5.88;;;2.70;;
20336;SDS011;10326;53.660;10.200;2023-04-26T19:19:12;7.00;;;2.35;;
20336;SDS011;10326;53.660;10.200;2023-04-26T19:21:39;4.13;;;2.22;;
20336;SDS011;10326;53.660;10.200;2023-04-26T19:24:06;5.68;;;2.40;;
20336;SDS011;10326;53.660;10.200;2023-04-26T19:26:35;6.28;;;2.25;;
20336;SDS011;10326;53.660;10.200;2023-04-26T19:29:02;5.75;;;2.60;;
20336;SDS011;10326;53.660;10.200;2023-04-26T19:31:29;6.03;;;2.70;;
20336;SDS011;10326;53.660;10.200;2023-04-26T19:33:56;4.30;;;2.33;;
20336;SDS011;10326;53.660;10.200;2023-04-26T19:36:23;4.65;;;2.30;;
20336;SDS011;10326;53.660;10.200;2023-04-26T19:38:51;6.53;;;2.45;;
20336;SDS011;10326;53.660;10.200;2023-04-26T19:41:18;4.90;;;2.25;;
20336;SDS011;10326;53.660;10.200;2023-04-26T19:43:46;6.15;;;2.60;;
20336;SDS011;10326;53.660;10.200;2023-04-26T19:46:14;2.95;;;2.08;;
20336;SDS011;10326;53.660;10.200;2023-04-26T19:48:41;4.28;;;2.17;;
20336;SDS011;10326;53.660;10.200;2023-04-26T19:51:12;5.13;;;2.15;;
20336;SDS011;10326;53.660;10.200;2023-04-26T19:53:41;5.57;;;2.83;;
20336;SDS011;10326;53.660;10.200;2023-04-26T19:56:08;5.15;;;2.45;;
20336;SDS011;10326;53.660;10.200;2023-04-26T19:58:36;6.80;;;2.55;;
20336;SDS011;10326;53.660;10.200;2023-04-26T20:01:05;5.32;;;2.85;;